sensor_id;sensor_type;location;lat;lon;timestamp;P1;durP1;ratioP1;P2;durP2;ratioP2
65182;SDS011;51771;51.068;-1.780;2023-04-15T00:01:01;4.20;;;1.73;;
65182;SDS011;51771;51.068;-1.780;2023-04-15T00:03:26;5.20;;;2.55;;
65182;SDS011;51771;51.068;-1.780;2023-04-15T00:05:52;5.35;;;2.17;;
65182;SDS011;51771;51.068;-1.780;2023-04-15T00:08:18;5.47;;;2.05;;
65182;SDS011;51771;51.068;-1.780;2023-04-15T00:10:44;4.70;;;1.73;;
65182;SDS011;51771;51.068;-1.780;2023-04-15T00:13:10;5.15;;;2.20;;
65182;SDS011;51771;51.068;-1.780;2023-04-15T00:15:36;4.78;;;2.42;;
65182;SDS011;51771;51.068;-1.780;2023-04-15T00:18:03;5.43;;;2.53;;
65182;SDS011;51771;51.068;-1.780;2023-04-15T00:20:29;5.38;;;2.35;;
65182;SDS011;51771;51.068;-1.780;2023-04-15T00:22:54;4.07;;;1.67;;
65182;SDS011;51771;51.068;-1.780;2023-04-15T00:25:20;5.57;;;2.05;;
65182;SDS011;51771;51.068;-1.780;2023-04-15T00:27:46;5.70;;;2.03;;
65182;SDS011;51771;51.068;-1.780;2023-04-15T00:30:11;4.97;;;2.22;;
65182;SDS011;51771;51.068;-1.780;2023-04-15T00:32:37;4.20;;;1.60;;
65182;SDS011;51771;51.068;-1.780;2023-04-15T00:35:02;4.25;;;1.65;;
65182;SDS011;51771;51.068;-1.780;2023-04-15T00:37:28;4.45;;;1.10;;
65182;SDS011;51771;51.068;-1.780;2023-04-15T00:39:53;4.85;;;1.63;;
65182;SDS011;51771;51.068;-1.780;2023-04-15T00:42:18;3.60;;;1.30;;
65182;SDS011;51771;51.068;-1.780;2023-04-15T00:44:45;3.38;;;1.20;;
65182;SDS011;51771;51.068;-1.780;2023-04-15T00:47:11;3.40;;;1.40;;
65182;SDS011;51771;51.068;-1.780;2023-04-15T00:49:37;4.93;;;1.65;;
65182;SDS011;51771;51.068;-1.780;2023-04-15T00:52:02;4.60;;;1.90;;
65182;SDS011;51771;51.068;-1.780;2023-04-15T00:54:28;6.72;;;1.52;;
65182;SDS011;51771;51.068;-1.780;2023-04-15T00:56:53;5.60;;;1.52;;
65182;SDS011;51771;51.068;-1.780;2023-04-15T00:59:19;4.53;;;1.38;;
65182;SDS011;51771;51.068;-1.780;2023-04-15T01:01:45;4.20;;;1.70;;
65182;SDS011;51771;51.068;-1.780;2023-04-15T01:04:15;5.70;;;2.30;;
65182;SDS011;51771;51.068;-1.780;2023-04-15T01:06:41;7.20;;;2.33;;
65182;SDS011;51771;51.068;-1.780;2023-04-15T01:09:06;4.88;;;2.25;;
65182;SDS011;51771;51.068;-1.780;2023-04-15T01:11:31;5.05;;;1.98;;
65182;SDS011;51771;51.068;-1.780;2023-04-15T01:13:59;7.05;;;2.80;;
65182;SDS011;51771;51.068;-1.780;2023-04-15T01:16:25;15.35;;;3.13;;
65182;SDS011;51771;51.068;-1.780;2023-04-15T01:18:52;9.55;;;2.83;;
65182;SDS011;51771;51.068;-1.780;2023-04-15T01:21:18;8.10;;;3.00;;
65182;SDS011;51771;51.068;-1.780;2023-04-15T01:23:44;7.25;;;3.15;;
65182;SDS011;51771;51.068;-1.780;2023-04-15T01:26:11;11.95;;;3.90;;
65182;SDS011;51771;51.068;-1.780;2023-04-15T01:28:37;8.00;;;3.42;;
65182;SDS011;51771;51.068;-1.780;2023-04-15T01:31:06;7.13;;;2.95;;
65182;SDS011;51771;51.068;-1.780;2023-04-15T01:33:32;9.40;;;3.60;;
65182;SDS011;51771;51.068;-1.780;2023-04-15T01:35:58;9.20;;;2.95;;
65182;SDS011;51771;51.068;-1.780;2023-04-15T01:38:25;5.47;;;2.33;;
65182;SDS011;51771;51.068;-1.780;2023-04-15T01:41:24;8.15;;;3.60;;
65182;SDS011;51771;51.068;-1.780;2023-04-15T01:44:09;9.10;;;3.30;;
65182;SDS011;51771;51.068;-1.780;2023-04-15T01:49:19;7.57;;;3.47;;
65182;SDS011;51771;51.068;-1.780;2023-04-15T01:51:44;9.65;;;3.05;;
65182;SDS011;51771;51.068;-1.780;2023-04-15T01:54:09;7.38;;;3.33;;
65182;SDS011;51771;51.068;-1.780;2023-04-15T01:56:35;8.48;;;3.28;;
65182;SDS011;51771;51.068;-1.780;2023-04-15T01:59:00;8.93;;;3.60;;
65182;SDS011;51771;51.068;-1.780;2023-04-15T02:01:27;12.77;;;4.30;;
65182;SDS011;51771;51.068;-1.780;2023-04-15T02:03:53;12.27;;;4.57;;
65182;SDS011;51771;51.068;-1.780;2023-04-15T02:06:18;9.43;;;4.00;;
65182;SDS011;51771;51.068;-1.780;2023-04-15T02:08:45;7.60;;;3.95;;
65182;SDS011;51771;51.068;-1.780;2023-04-15T02:11:10;9.10;;;4.25;;
65182;SDS011;51771;51.068;-1.780;2023-04-15T02:13:35;8.88;;;3.97;;
65182;SDS011;51771;51.068;-1.780;2023-04-15T02:16:01;9.73;;;4.50;;
65182;SDS011;51771;51.068;-1.780;2023-04-15T02:18:27;8.82;;;4.10;;
65182;SDS011;51771;51.068;-1.780;2023-04-15T02:20:52;9.98;;;4.63;;
65182;SDS011;51771;51.068;-1.780;2023-04-15T02:23:18;9.38;;;4.75;;
65182;SDS011;51771;51.068;-1.780;2023-04-15T02:25:43;14.68;;;5.72;;
65182;SDS011;51771;51.068;-1.780;2023-04-15T02:28:08;9.43;;;4.68;;
65182;SDS011;51771;51.068;-1.780;2023-04-15T02:30:34;11.02;;;4.55;;
65182;SDS011;51771;51.068;-1.780;2023-04-15T02:32:59;9.27;;;4.20;;
65182;SDS011;51771;51.068;-1.780;2023-04-15T02:35:25;10.73;;;4.57;;
65182;SDS011;51771;51.068;-1.780;2023-04-15T02:37:51;10.50;;;4.82;;
65182;SDS011;51771;51.068;-1.780;2023-04-15T02:40:16;10.38;;;3.90;;
65182;SDS011;51771;51.068;-1.780;2023-04-15T02:42:44;9.20;;;4.00;;
65182;SDS011;51771;51.068;-1.780;2023-04-15T02:45:29;9.00;;;3.75;;
65182;SDS011;51771;51.068;-1.780;2023-04-15T02:47:54;10.25;;;4.13;;
65182;SDS011;51771;51.068;-1.780;2023-04-15T02:50:21;12.82;;;5.38;;
65182;SDS011;51771;51.068;-1.780;2023-04-15T02:52:48;10.07;;;3.70;;
65182;SDS011;51771;51.068;-1.780;2023-04-15T02:55:13;10.20;;;4.97;;
65182;SDS011;51771;51.068;-1.780;2023-04-15T02:57:39;8.02;;;4.03;;
65182;SDS011;51771;51.068;-1.780;2023-04-15T03:00:32;8.73;;;3.47;;
65182;SDS011;51771;51.068;-1.780;2023-04-15T03:03:10;11.60;;;3.97;;
65182;SDS011;51771;51.068;-1.780;2023-04-15T03:05:36;12.30;;;4.43;;
65182;SDS011;51771;51.068;-1.780;2023-04-15T03:08:03;9.13;;;4.22;;
65182;SDS011;51771;51.068;-1.780;2023-04-15T03:10:47;10.45;;;4.63;;
65182;SDS011;51771;51.068;-1.780;2023-04-15T03:13:31;13.68;;;5.00;;
65182;SDS011;51771;51.068;-1.780;2023-04-15T03:15:56;11.30;;;5.07;;
65182;SDS011;51771;51.068;-1.780;2023-04-15T03:18:50;10.07;;;4.97;;
65182;SDS011;51771;51.068;-1.780;2023-04-15T03:21:15;10.77;;;4.20;;
65182;SDS011;51771;51.068;-1.780;2023-04-15T03:23:40;9.10;;;4.03;;
65182;SDS011;51771;51.068;-1.780;2023-04-15T03:26:06;10.18;;;4.40;;
65182;SDS011;51771;51.068;-1.780;2023-04-15T03:28:53;9.38;;;4.47;;
65182;SDS011;51771;51.068;-1.780;2023-04-15T03:31:23;8.55;;;3.92;;
65182;SDS011;51771;51.068;-1.780;2023-04-15T03:33:53;10.73;;;5.03;;
65182;SDS011;51771;51.068;-1.780;2023-04-15T03:36:19;11.35;;;4.55;;
65182;SDS011;51771;51.068;-1.780;2023-04-15T03:38:48;8.88;;;4.07;;
65182;SDS011;51771;51.068;-1.780;2023-04-15T03:41:18;8.95;;;4.72;;
65182;SDS011;51771;51.068;-1.780;2023-04-15T03:44:00;9.00;;;4.03;;
65182;SDS011;51771;51.068;-1.780;2023-04-15T03:46:26;9.63;;;4.10;;
65182;SDS011;51771;51.068;-1.780;2023-04-15T03:48:51;12.88;;;4.60;;
65182;SDS011;51771;51.068;-1.780;2023-04-15T03:51:17;11.90;;;4.50;;
65182;SDS011;51771;51.068;-1.780;2023-04-15T03:53:42;10.35;;;3.72;;
65182;SDS011;51771;51.068;-1.780;2023-04-15T03:56:08;10.85;;;4.28;;
65182;SDS011;51771;51.068;-1.780;2023-04-15T03:58:33;7.40;;;4.00;;
65182;SDS011;51771;51.068;-1.780;2023-04-15T04:00:58;9.32;;;3.92;;
65182;SDS011;51771;51.068;-1.780;2023-04-15T04:03:24;7.03;;;3.42;;
65182;SDS011;51771;51.068;-1.780;2023-04-15T04:06:06;9.57;;;3.92;;
65182;SDS011;51771;51.068;-1.780;2023-04-15T04:08:41;6.88;;;3.58;;
65182;SDS011;51771;51.068;-1.780;2023-04-15T04:11:06;12.95;;;4.55;;
65182;SDS011;51771;51.068;-1.780;2023-04-15T04:13:32;9.25;;;3.67;;
65182;SDS011;51771;51.068;-1.780;2023-04-15T04:15:57;10.70;;;4.20;;
65182;SDS011;51771;51.068;-1.780;2023-04-15T04:18:23;7.55;;;3.63;;
65182;SDS011;51771;51.068;-1.780;2023-04-15T04:20:48;8.75;;;3.67;;
65182;SDS011;51771;51.068;-1.780;2023-04-15T04:23:13;8.93;;;4.65;;
65182;SDS011;51771;51.068;-1.780;2023-04-15T04:25:39;8.20;;;4.10;;
65182;SDS011;51771;51.068;-1.780;2023-04-15T04:28:05;11.52;;;4.63;;
65182;SDS011;51771;51.068;-1.780;2023-04-15T04:30:30;8.80;;;3.80;;
65182;SDS011;51771;51.068;-1.780;2023-04-15T04:32:56;8.95;;;4.53;;
65182;SDS011;51771;51.068;-1.780;2023-04-15T04:35:22;11.02;;;4.43;;
65182;SDS011;51771;51.068;-1.780;2023-04-15T04:37:47;10.13;;;4.43;;
65182;SDS011;51771;51.068;-1.780;2023-04-15T04:40:15;12.45;;;4.88;;
65182;SDS011;51771;51.068;-1.780;2023-04-15T04:42:41;10.20;;;4.13;;
65182;SDS011;51771;51.068;-1.780;2023-04-15T04:45:06;10.60;;;4.38;;
65182;SDS011;51771;51.068;-1.780;2023-04-15T04:47:32;9.68;;;3.92;;
65182;SDS011;51771;51.068;-1.780;2023-04-15T04:49:57;8.57;;;4.38;;
65182;SDS011;51771;51.068;-1.780;2023-04-15T04:52:23;10.13;;;4.13;;
65182;SDS011;51771;51.068;-1.780;2023-04-15T04:54:48;8.30;;;3.92;;
65182;SDS011;51771;51.068;-1.780;2023-04-15T04:57:14;8.20;;;4.32;;
65182;SDS011;51771;51.068;-1.780;2023-04-15T04:59:42;11.10;;;4.47;;
65182;SDS011;51771;51.068;-1.780;2023-04-15T05:02:07;10.00;;;4.10;;
65182;SDS011;51771;51.068;-1.780;2023-04-15T05:04:33;12.13;;;5.10;;
65182;SDS011;51771;51.068;-1.780;2023-04-15T05:06:58;12.55;;;4.85;;
65182;SDS011;51771;51.068;-1.780;2023-04-15T05:09:24;9.40;;;4.45;;
65182;SDS011;51771;51.068;-1.780;2023-04-15T05:11:49;10.88;;;4.53;;
65182;SDS011;51771;51.068;-1.780;2023-04-15T05:14:14;8.77;;;4.25;;
65182;SDS011;51771;51.068;-1.780;2023-04-15T05:16:40;8.80;;;4.00;;
65182;SDS011;51771;51.068;-1.780;2023-04-15T05:19:05;9.75;;;4.43;;
65182;SDS011;51771;51.068;-1.780;2023-04-15T05:21:31;11.30;;;3.80;;
65182;SDS011;51771;51.068;-1.780;2023-04-15T05:23:57;11.48;;;4.25;;
65182;SDS011;51771;51.068;-1.780;2023-04-15T05:26:22;9.20;;;3.75;;
65182;SDS011;51771;51.068;-1.780;2023-04-15T05:28:48;10.70;;;3.80;;
65182;SDS011;51771;51.068;-1.780;2023-04-15T05:31:14;6.80;;;3.30;;
65182;SDS011;51771;51.068;-1.780;2023-04-15T05:33:39;8.75;;;4.10;;
65182;SDS011;51771;51.068;-1.780;2023-04-15T05:36:05;7.10;;;3.63;;
65182;SDS011;51771;51.068;-1.780;2023-04-15T05:38:31;7.60;;;3.78;;
65182;SDS011;51771;51.068;-1.780;2023-04-15T05:40:56;9.27;;;2.95;;
65182;SDS011;51771;51.068;-1.780;2023-04-15T05:43:22;8.88;;;3.65;;
65182;SDS011;51771;51.068;-1.780;2023-04-15T05:45:47;8.20;;;3.03;;
65182;SDS011;51771;51.068;-1.780;2023-04-15T05:48:12;13.10;;;2.90;;
65182;SDS011;51771;51.068;-1.780;2023-04-15T05:50:39;6.45;;;2.15;;
65182;SDS011;51771;51.068;-1.780;2023-04-15T05:53:06;6.35;;;1.92;;
65182;SDS011;51771;51.068;-1.780;2023-04-15T05:55:32;6.25;;;2.15;;
65182;SDS011;51771;51.068;-1.780;2023-04-15T05:57:59;4.32;;;1.77;;
65182;SDS011;51771;51.068;-1.780;2023-04-15T06:00:27;5.30;;;2.00;;
65182;SDS011;51771;51.068;-1.780;2023-04-15T06:02:53;4.78;;;2.00;;
65182;SDS011;51771;51.068;-1.780;2023-04-15T06:05:18;6.45;;;2.00;;
65182;SDS011;51771;51.068;-1.780;2023-04-15T06:07:44;5.47;;;1.95;;
65182;SDS011;51771;51.068;-1.780;2023-04-15T06:10:09;5.35;;;1.85;;
65182;SDS011;51771;51.068;-1.780;2023-04-15T06:12:35;5.60;;;1.85;;
65182;SDS011;51771;51.068;-1.780;2023-04-15T06:15:00;4.38;;;1.80;;
65182;SDS011;51771;51.068;-1.780;2023-04-15T06:17:26;4.47;;;1.83;;
65182;SDS011;51771;51.068;-1.780;2023-04-15T06:19:54;5.05;;;1.70;;
65182;SDS011;51771;51.068;-1.780;2023-04-15T06:22:22;7.45;;;2.00;;
65182;SDS011;51771;51.068;-1.780;2023-04-15T06:24:48;7.15;;;2.03;;
65182;SDS011;51771;51.068;-1.780;2023-04-15T06:27:17;4.53;;;1.88;;
65182;SDS011;51771;51.068;-1.780;2023-04-15T06:29:42;6.78;;;2.05;;
65182;SDS011;51771;51.068;-1.780;2023-04-15T06:32:08;5.70;;;2.05;;
65182;SDS011;51771;51.068;-1.780;2023-04-15T06:34:34;5.07;;;1.83;;
65182;SDS011;51771;51.068;-1.780;2023-04-15T06:36:59;5.40;;;1.85;;
65182;SDS011;51771;51.068;-1.780;2023-04-15T06:39:25;4.00;;;1.80;;
65182;SDS011;51771;51.068;-1.780;2023-04-15T06:41:51;4.10;;;1.80;;
65182;SDS011;51771;51.068;-1.780;2023-04-15T06:44:17;5.47;;;1.85;;
65182;SDS011;51771;51.068;-1.780;2023-04-15T06:46:45;6.90;;;2.15;;
65182;SDS011;51771;51.068;-1.780;2023-04-15T06:49:10;4.75;;;1.80;;
65182;SDS011;51771;51.068;-1.780;2023-04-15T06:51:36;5.30;;;2.20;;
65182;SDS011;51771;51.068;-1.780;2023-04-15T06:54:02;5.75;;;1.95;;
65182;SDS011;51771;51.068;-1.780;2023-04-15T06:56:30;9.20;;;2.10;;
65182;SDS011;51771;51.068;-1.780;2023-04-15T06:58:56;5.28;;;1.88;;
65182;SDS011;51771;51.068;-1.780;2023-04-15T07:01:58;4.43;;;2.00;;
65182;SDS011;51771;51.068;-1.780;2023-04-15T07:04:23;5.90;;;2.03;;
65182;SDS011;51771;51.068;-1.780;2023-04-15T07:06:49;4.93;;;1.95;;
65182;SDS011;51771;51.068;-1.780;2023-04-15T07:09:14;6.25;;;1.98;;
65182;SDS011;51771;51.068;-1.780;2023-04-15T07:11:40;6.32;;;2.13;;
65182;SDS011;51771;51.068;-1.780;2023-04-15T07:14:06;4.03;;;2.20;;
65182;SDS011;51771;51.068;-1.780;2023-04-15T07:16:31;6.45;;;2.53;;
65182;SDS011;51771;51.068;-1.780;2023-04-15T07:18:57;6.50;;;2.38;;
65182;SDS011;51771;51.068;-1.780;2023-04-15T07:21:25;6.70;;;2.50;;
65182;SDS011;51771;51.068;-1.780;2023-04-15T07:23:59;6.28;;;2.60;;
65182;SDS011;51771;51.068;-1.780;2023-04-15T07:26:32;7.63;;;2.45;;
65182;SDS011;51771;51.068;-1.780;2023-04-15T07:29:23;4.50;;;2.22;;
65182;SDS011;51771;51.068;-1.780;2023-04-15T07:31:49;5.90;;;2.53;;
65182;SDS011;51771;51.068;-1.780;2023-04-15T07:34:14;7.57;;;2.60;;
65182;SDS011;51771;51.068;-1.780;2023-04-15T07:37:00;6.70;;;2.85;;
65182;SDS011;51771;51.068;-1.780;2023-04-15T07:39:30;7.28;;;2.80;;
65182;SDS011;51771;51.068;-1.780;2023-04-15T07:44:50;8.38;;;3.03;;
65182;SDS011;51771;51.068;-1.780;2023-04-15T07:47:15;6.28;;;3.30;;
65182;SDS011;51771;51.068;-1.780;2023-04-15T07:49:55;6.63;;;2.83;;
65182;SDS011;51771;51.068;-1.780;2023-04-15T07:52:21;7.25;;;3.20;;
65182;SDS011;51771;51.068;-1.780;2023-04-15T07:54:46;6.80;;;3.10;;
65182;SDS011;51771;51.068;-1.780;2023-04-15T07:57:12;8.05;;;3.63;;
65182;SDS011;51771;51.068;-1.780;2023-04-15T07:59:37;6.28;;;2.90;;
65182;SDS011;51771;51.068;-1.780;2023-04-15T08:02:05;7.40;;;3.50;;
65182;SDS011;51771;51.068;-1.780;2023-04-15T08:04:31;5.68;;;3.20;;
65182;SDS011;51771;51.068;-1.780;2023-04-15T08:06:57;5.00;;;2.80;;
65182;SDS011;51771;51.068;-1.780;2023-04-15T08:09:23;6.22;;;2.90;;
65182;SDS011;51771;51.068;-1.780;2023-04-15T08:11:48;8.30;;;3.47;;
65182;SDS011;51771;51.068;-1.780;2023-04-15T08:14:15;9.20;;;3.10;;
65182;SDS011;51771;51.068;-1.780;2023-04-15T08:16:40;6.22;;;3.17;;
65182;SDS011;51771;51.068;-1.780;2023-04-15T08:19:06;7.55;;;3.33;;
65182;SDS011;51771;51.068;-1.780;2023-04-15T08:21:31;8.70;;;3.00;;
65182;SDS011;51771;51.068;-1.780;2023-04-15T08:23:57;9.73;;;2.90;;
65182;SDS011;51771;51.068;-1.780;2023-04-15T08:26:22;6.85;;;3.47;;
65182;SDS011;51771;51.068;-1.780;2023-04-15T08:28:48;6.30;;;3.35;;
65182;SDS011;51771;51.068;-1.780;2023-04-15T08:31:14;7.30;;;3.25;;
65182;SDS011;51771;51.068;-1.780;2023-04-15T08:33:40;5.30;;;2.70;;
65182;SDS011;51771;51.068;-1.780;2023-04-15T08:36:06;5.65;;;2.60;;
65182;SDS011;51771;51.068;-1.780;2023-04-15T08:38:31;5.70;;;2.70;;
65182;SDS011;51771;51.068;-1.780;2023-04-15T08:40:57;6.57;;;2.92;;
65182;SDS011;51771;51.068;-1.780;2023-04-15T08:43:32;7.18;;;3.10;;
65182;SDS011;51771;51.068;-1.780;2023-04-15T08:45:59;5.63;;;2.03;;
65182;SDS011;51771;51.068;-1.780;2023-04-15T08:48:26;4.82;;;2.03;;
65182;SDS011;51771;51.068;-1.780;2023-04-15T08:51:01;7.80;;;2.85;;
65182;SDS011;51771;51.068;-1.780;2023-04-15T08:53:28;7.20;;;2.97;;
65182;SDS011;51771;51.068;-1.780;2023-04-15T08:55:54;4.82;;;2.47;;
65182;SDS011;51771;51.068;-1.780;2023-04-15T08:58:21;5.25;;;2.60;;
65182;SDS011;51771;51.068;-1.780;2023-04-15T09:00:48;7.32;;;3.55;;
65182;SDS011;51771;51.068;-1.780;2023-04-15T09:03:14;5.40;;;2.50;;
65182;SDS011;51771;51.068;-1.780;2023-04-15T09:05:41;6.78;;;3.08;;
65182;SDS011;51771;51.068;-1.780;2023-04-15T09:08:07;7.03;;;2.90;;
65182;SDS011;51771;51.068;-1.780;2023-04-15T09:10:33;6.63;;;3.15;;
65182;SDS011;51771;51.068;-1.780;2023-04-15T09:12:58;5.78;;;2.92;;
65182;SDS011;51771;51.068;-1.780;2023-04-15T09:15:34;10.45;;;3.30;;
65182;SDS011;51771;51.068;-1.780;2023-04-15T09:18:02;5.60;;;2.72;;
65182;SDS011;51771;51.068;-1.780;2023-04-15T09:20:28;6.72;;;3.08;;
65182;SDS011;51771;51.068;-1.780;2023-04-15T09:22:53;6.20;;;2.80;;
65182;SDS011;51771;51.068;-1.780;2023-04-15T09:27:58;6.90;;;2.63;;
65182;SDS011;51771;51.068;-1.780;2023-04-15T09:30:28;6.25;;;2.78;;
65182;SDS011;51771;51.068;-1.780;2023-04-15T09:32:55;4.50;;;2.20;;
65182;SDS011;51771;51.068;-1.780;2023-04-15T09:35:35;3.92;;;1.67;;
65182;SDS011;51771;51.068;-1.780;2023-04-15T09:38:05;4.30;;;1.80;;
65182;SDS011;51771;51.068;-1.780;2023-04-15T09:40:40;4.78;;;2.20;;
65182;SDS011;51771;51.068;-1.780;2023-04-15T09:43:06;5.15;;;2.00;;
65182;SDS011;51771;51.068;-1.780;2023-04-15T09:45:33;5.05;;;2.60;;
65182;SDS011;51771;51.068;-1.780;2023-04-15T09:48:19;4.57;;;2.38;;
65182;SDS011;51771;51.068;-1.780;2023-04-15T09:50:57;7.38;;;3.05;;
65182;SDS011;51771;51.068;-1.780;2023-04-15T09:53:24;7.15;;;2.85;;
65182;SDS011;51771;51.068;-1.780;2023-04-15T09:55:51;4.97;;;2.85;;
65182;SDS011;51771;51.068;-1.780;2023-04-15T09:58:22;6.20;;;3.10;;
65182;SDS011;51771;51.068;-1.780;2023-04-15T10:00:55;6.28;;;2.70;;
65182;SDS011;51771;51.068;-1.780;2023-04-15T10:03:31;7.72;;;2.75;;
65182;SDS011;51771;51.068;-1.780;2023-04-15T10:06:00;5.82;;;2.42;;
65182;SDS011;51771;51.068;-1.780;2023-04-15T10:08:28;7.65;;;2.15;;
65182;SDS011;51771;51.068;-1.780;2023-04-15T10:10:55;4.82;;;2.17;;
65182;SDS011;51771;51.068;-1.780;2023-04-15T10:13:25;5.97;;;2.42;;
65182;SDS011;51771;51.068;-1.780;2023-04-15T10:15:57;4.80;;;2.20;;
65182;SDS011;51771;51.068;-1.780;2023-04-15T10:18:30;5.38;;;2.45;;
65182;SDS011;51771;51.068;-1.780;2023-04-15T10:21:00;5.57;;;2.58;;
65182;SDS011;51771;51.068;-1.780;2023-04-15T10:23:26;6.28;;;2.15;;
65182;SDS011;51771;51.068;-1.780;2023-04-15T10:25:52;4.07;;;1.83;;
65182;SDS011;51771;51.068;-1.780;2023-04-15T10:28:25;4.40;;;2.10;;
65182;SDS011;51771;51.068;-1.780;2023-04-15T10:30:51;4.22;;;2.00;;
65182;SDS011;51771;51.068;-1.780;2023-04-15T10:33:19;5.05;;;1.83;;
65182;SDS011;51771;51.068;-1.780;2023-04-15T10:35:56;5.30;;;2.15;;
65182;SDS011;51771;51.068;-1.780;2023-04-15T10:38:33;5.07;;;1.80;;
65182;SDS011;51771;51.068;-1.780;2023-04-15T10:41:24;6.10;;;2.60;;
65182;SDS011;51771;51.068;-1.780;2023-04-15T10:43:56;5.22;;;2.30;;
65182;SDS011;51771;51.068;-1.780;2023-04-15T10:46:35;7.32;;;2.28;;
65182;SDS011;51771;51.068;-1.780;2023-04-15T10:49:08;5.07;;;2.30;;
65182;SDS011;51771;51.068;-1.780;2023-04-15T10:51:40;4.50;;;2.10;;
65182;SDS011;51771;51.068;-1.780;2023-04-15T10:54:08;6.53;;;2.13;;
65182;SDS011;51771;51.068;-1.780;2023-04-15T10:56:42;5.43;;;2.00;;
65182;SDS011;51771;51.068;-1.780;2023-04-15T10:59:09;5.97;;;2.20;;
65182;SDS011;51771;51.068;-1.780;2023-04-15T11:07:37;4.70;;;1.73;;
65182;SDS011;51771;51.068;-1.780;2023-04-15T11:12:53;3.58;;;1.45;;
65182;SDS011;51771;51.068;-1.780;2023-04-15T11:18:22;4.38;;;2.00;;
65182;SDS011;51771;51.068;-1.780;2023-04-15T11:20:52;3.47;;;1.40;;
65182;SDS011;51771;51.068;-1.780;2023-04-15T11:23:42;5.07;;;1.85;;
65182;SDS011;51771;51.068;-1.780;2023-04-15T11:26:11;4.63;;;1.77;;
65182;SDS011;51771;51.068;-1.780;2023-04-15T11:28:38;5.35;;;1.92;;
65182;SDS011;51771;51.068;-1.780;2023-04-15T11:31:05;4.18;;;1.65;;
65182;SDS011;51771;51.068;-1.780;2023-04-15T11:33:59;3.80;;;1.52;;
65182;SDS011;51771;51.068;-1.780;2023-04-15T11:39:12;8.98;;;1.80;;
65182;SDS011;51771;51.068;-1.780;2023-04-15T11:41:53;3.92;;;1.70;;
65182;SDS011;51771;51.068;-1.780;2023-04-15T11:44:19;3.80;;;1.50;;
65182;SDS011;51771;51.068;-1.780;2023-04-15T11:46:44;3.53;;;1.42;;
65182;SDS011;51771;51.068;-1.780;2023-04-15T11:49:10;4.75;;;1.95;;
65182;SDS011;51771;51.068;-1.780;2023-04-15T11:51:35;4.68;;;1.98;;
65182;SDS011;51771;51.068;-1.780;2023-04-15T11:54:21;4.80;;;2.05;;
65182;SDS011;51771;51.068;-1.780;2023-04-15T11:56:50;4.88;;;2.35;;
65182;SDS011;51771;51.068;-1.780;2023-04-15T11:59:16;4.80;;;2.00;;
65182;SDS011;51771;51.068;-1.780;2023-04-15T12:01:42;4.00;;;1.90;;
65182;SDS011;51771;51.068;-1.780;2023-04-15T12:04:23;4.65;;;2.00;;
65182;SDS011;51771;51.068;-1.780;2023-04-15T12:07:07;4.53;;;2.00;;
65182;SDS011;51771;51.068;-1.780;2023-04-15T12:09:36;6.00;;;2.17;;
65182;SDS011;51771;51.068;-1.780;2023-04-15T12:12:02;5.75;;;2.15;;
65182;SDS011;51771;51.068;-1.780;2023-04-15T12:14:30;5.07;;;1.90;;
65182;SDS011;51771;51.068;-1.780;2023-04-15T12:17:01;5.00;;;2.30;;
65182;SDS011;51771;51.068;-1.780;2023-04-15T12:19:34;5.43;;;2.42;;
65182;SDS011;51771;51.068;-1.780;2023-04-15T12:22:05;4.38;;;1.90;;
65182;SDS011;51771;51.068;-1.780;2023-04-15T12:24:35;4.90;;;2.15;;
65182;SDS011;51771;51.068;-1.780;2023-04-15T12:27:19;4.72;;;2.10;;
65182;SDS011;51771;51.068;-1.780;2023-04-15T12:29:45;5.10;;;2.15;;
65182;SDS011;51771;51.068;-1.780;2023-04-15T12:32:12;4.40;;;1.77;;
65182;SDS011;51771;51.068;-1.780;2023-04-15T12:34:40;4.18;;;1.70;;
65182;SDS011;51771;51.068;-1.780;2023-04-15T12:37:10;4.55;;;1.85;;
65182;SDS011;51771;51.068;-1.780;2023-04-15T12:39:39;4.63;;;1.98;;
65182;SDS011;51771;51.068;-1.780;2023-04-15T12:42:06;4.55;;;1.92;;
65182;SDS011;51771;51.068;-1.780;2023-04-15T12:44:35;5.10;;;1.85;;
65182;SDS011;51771;51.068;-1.780;2023-04-15T12:47:03;4.15;;;1.73;;
65182;SDS011;51771;51.068;-1.780;2023-04-15T12:49:29;3.97;;;1.58;;
65182;SDS011;51771;51.068;-1.780;2023-04-15T12:51:57;3.97;;;1.63;;
65182;SDS011;51771;51.068;-1.780;2023-04-15T12:54:24;3.90;;;1.60;;
65182;SDS011;51771;51.068;-1.780;2023-04-15T12:56:51;4.13;;;1.65;;
65182;SDS011;51771;51.068;-1.780;2023-04-15T12:59:17;5.05;;;1.95;;
65182;SDS011;51771;51.068;-1.780;2023-04-15T13:01:43;4.50;;;1.40;;
65182;SDS011;51771;51.068;-1.780;2023-04-15T13:04:15;3.15;;;0.95;;
65182;SDS011;51771;51.068;-1.780;2023-04-15T13:06:41;5.40;;;1.73;;
65182;SDS011;51771;51.068;-1.780;2023-04-15T13:09:06;3.90;;;1.58;;
65182;SDS011;51771;51.068;-1.780;2023-04-15T13:11:32;5.20;;;1.80;;
65182;SDS011;51771;51.068;-1.780;2023-04-15T13:13:58;4.70;;;1.95;;
65182;SDS011;51771;51.068;-1.780;2023-04-15T13:16:28;5.43;;;2.03;;
65182;SDS011;51771;51.068;-1.780;2023-04-15T13:19:12;4.63;;;1.95;;
65182;SDS011;51771;51.068;-1.780;2023-04-15T13:21:56;4.32;;;1.88;;
65182;SDS011;51771;51.068;-1.780;2023-04-15T13:24:21;4.53;;;2.13;;
65182;SDS011;51771;51.068;-1.780;2023-04-15T13:26:47;3.80;;;1.70;;
65182;SDS011;51771;51.068;-1.780;2023-04-15T13:29:13;4.65;;;1.80;;
65182;SDS011;51771;51.068;-1.780;2023-04-15T13:31:38;3.80;;;1.63;;
65182;SDS011;51771;51.068;-1.780;2023-04-15T13:34:03;4.93;;;2.10;;
65182;SDS011;51771;51.068;-1.780;2023-04-15T13:36:51;3.55;;;1.58;;
65182;SDS011;51771;51.068;-1.780;2023-04-15T13:39:16;4.70;;;2.00;;
65182;SDS011;51771;51.068;-1.780;2023-04-15T13:41:42;4.40;;;1.70;;
65182;SDS011;51771;51.068;-1.780;2023-04-15T13:44:07;4.25;;;1.60;;
65182;SDS011;51771;51.068;-1.780;2023-04-15T13:46:32;5.78;;;2.10;;
65182;SDS011;51771;51.068;-1.780;2023-04-15T13:48:58;4.68;;;1.50;;
65182;SDS011;51771;51.068;-1.780;2023-04-15T13:51:42;4.55;;;2.00;;
65182;SDS011;51771;51.068;-1.780;2023-04-15T13:54:07;5.38;;;2.20;;
65182;SDS011;51771;51.068;-1.780;2023-04-15T13:56:33;4.80;;;1.70;;
65182;SDS011;51771;51.068;-1.780;2023-04-15T13:58:58;3.38;;;1.45;;
65182;SDS011;51771;51.068;-1.780;2023-04-15T14:01:26;3.33;;;1.23;;
65182;SDS011;51771;51.068;-1.780;2023-04-15T14:03:54;4.00;;;1.25;;
65182;SDS011;51771;51.068;-1.780;2023-04-15T14:06:20;3.22;;;1.17;;
65182;SDS011;51771;51.068;-1.780;2023-04-15T14:08:47;3.70;;;1.20;;
65182;SDS011;51771;51.068;-1.780;2023-04-15T14:11:13;3.55;;;1.30;;
65182;SDS011;51771;51.068;-1.780;2023-04-15T14:13:38;3.55;;;1.42;;
65182;SDS011;51771;51.068;-1.780;2023-04-15T14:16:04;3.97;;;1.40;;
65182;SDS011;51771;51.068;-1.780;2023-04-15T14:18:29;3.42;;;1.30;;
65182;SDS011;51771;51.068;-1.780;2023-04-15T14:20:55;3.40;;;1.42;;
65182;SDS011;51771;51.068;-1.780;2023-04-15T14:23:21;3.60;;;1.30;;
65182;SDS011;51771;51.068;-1.780;2023-04-15T14:25:47;3.55;;;1.35;;
65182;SDS011;51771;51.068;-1.780;2023-04-15T14:28:15;4.78;;;1.75;;
65182;SDS011;51771;51.068;-1.780;2023-04-15T14:30:42;3.95;;;1.50;;
65182;SDS011;51771;51.068;-1.780;2023-04-15T14:33:07;5.10;;;1.70;;
65182;SDS011;51771;51.068;-1.780;2023-04-15T14:35:34;9.15;;;3.13;;
65182;SDS011;51771;51.068;-1.780;2023-04-15T14:38:00;4.38;;;1.45;;
65182;SDS011;51771;51.068;-1.780;2023-04-15T14:40:25;3.50;;;1.27;;
65182;SDS011;51771;51.068;-1.780;2023-04-15T14:42:56;5.32;;;1.67;;
65182;SDS011;51771;51.068;-1.780;2023-04-15T14:45:21;3.30;;;1.17;;
65182;SDS011;51771;51.068;-1.780;2023-04-15T14:47:47;3.80;;;1.38;;
65182;SDS011;51771;51.068;-1.780;2023-04-15T14:50:12;3.42;;;1.40;;
65182;SDS011;51771;51.068;-1.780;2023-04-15T14:52:38;6.82;;;1.67;;
65182;SDS011;51771;51.068;-1.780;2023-04-15T14:55:08;8.15;;;3.50;;
65182;SDS011;51771;51.068;-1.780;2023-04-15T14:57:37;3.88;;;1.30;;
65182;SDS011;51771;51.068;-1.780;2023-04-15T15:00:04;3.88;;;1.42;;
65182;SDS011;51771;51.068;-1.780;2023-04-15T15:03:07;3.70;;;1.33;;